Aviation Digital Data Service (ADDS)

Output produced by METARs form (0735 UTC 16 January 2018)
found at http://www.aviationweather.gov/adds/metars/
 
KDLH 160655Z 34008KT 10SM FEW070 M17/M18 A3054 RMK AO2 SNE01 SLP383 P0000 T11671183